sensor_id;sensor_type;location;lat;lon;timestamp;P1;durP1;ratioP1;P2;durP2;ratioP2
40290;SDS011;26000;48.304;13.626;2022-08-11T00:00:34;5.60;;;4.03;;
40290;SDS011;26000;48.304;13.626;2022-08-11T00:03:06;5.57;;;4.70;;
40290;SDS011;26000;48.304;13.626;2022-08-11T00:05:33;8.98;;;4.40;;
40290;SDS011;26000;48.304;13.626;2022-08-11T00:08:20;5.43;;;4.30;;
40290;SDS011;26000;48.304;13.626;2022-08-11T00:10:58;5.40;;;4.15;;
40290;SDS011;26000;48.304;13.626;2022-08-11T00:13:36;9.02;;;4.68;;
40290;SDS011;26000;48.304;13.626;2022-08-11T00:18:38;6.40;;;4.78;;
40290;SDS011;26000;48.304;13.626;2022-08-11T00:21:13;6.63;;;4.68;;
40290;SDS011;26000;48.304;13.626;2022-08-11T00:23:40;7.20;;;4.43;;
40290;SDS011;26000;48.304;13.626;2022-08-11T00:26:08;6.47;;;4.45;;
40290;SDS011;26000;48.304;13.626;2022-08-11T00:28:36;9.65;;;4.63;;
40290;SDS011;26000;48.304;13.626;2022-08-11T00:31:05;5.65;;;4.40;;
40290;SDS011;26000;48.304;13.626;2022-08-11T00:33:36;7.10;;;4.15;;
40290;SDS011;26000;48.304;13.626;2022-08-11T00:36:03;6.45;;;4.25;;
40290;SDS011;26000;48.304;13.626;2022-08-11T00:38:32;8.57;;;4.18;;
40290;SDS011;26000;48.304;13.626;2022-08-11T00:44:14;7.75;;;4.72;;
40290;SDS011;26000;48.304;13.626;2022-08-11T00:49:37;8.43;;;4.60;;
40290;SDS011;26000;48.304;13.626;2022-08-11T00:52:29;7.15;;;4.68;;
40290;SDS011;26000;48.304;13.626;2022-08-11T01:09:18;6.80;;;4.65;;
40290;SDS011;26000;48.304;13.626;2022-08-11T01:31:55;6.30;;;4.93;;
40290;SDS011;26000;48.304;13.626;2022-08-11T01:46:46;5.53;;;4.68;;
40290;SDS011;26000;48.304;13.626;2022-08-11T01:49:30;7.10;;;4.30;;
40290;SDS011;26000;48.304;13.626;2022-08-11T01:52:23;9.57;;;4.50;;
40290;SDS011;26000;48.304;13.626;2022-08-11T01:57:46;5.10;;;4.50;;
40290;SDS011;26000;48.304;13.626;2022-08-11T02:00:21;6.10;;;4.78;;
40290;SDS011;26000;48.304;13.626;2022-08-11T02:11:26;4.88;;;4.20;;
40290;SDS011;26000;48.304;13.626;2022-08-11T02:28:23;11.23;;;4.82;;
40290;SDS011;26000;48.304;13.626;2022-08-11T02:33:47;6.20;;;4.90;;
40290;SDS011;26000;48.304;13.626;2022-08-11T02:36:26;5.40;;;4.80;;
40290;SDS011;26000;48.304;13.626;2022-08-11T02:39:06;6.82;;;4.85;;
40290;SDS011;26000;48.304;13.626;2022-08-11T02:44:35;8.68;;;5.40;;
40290;SDS011;26000;48.304;13.626;2022-08-11T02:50:37;6.57;;;5.80;;
40290;SDS011;26000;48.304;13.626;2022-08-11T02:53:19;7.18;;;5.60;;
40290;SDS011;26000;48.304;13.626;2022-08-11T02:56:11;7.28;;;5.38;;
40290;SDS011;26000;48.304;13.626;2022-08-11T03:01:58;6.65;;;5.35;;
40290;SDS011;26000;48.304;13.626;2022-08-11T03:07:30;6.20;;;5.20;;
40290;SDS011;26000;48.304;13.626;2022-08-11T03:12:48;9.07;;;5.53;;
40290;SDS011;26000;48.304;13.626;2022-08-11T03:18:41;7.72;;;5.50;;
40290;SDS011;26000;48.304;13.626;2022-08-11T03:21:20;6.93;;;5.68;;
40290;SDS011;26000;48.304;13.626;2022-08-11T03:24:01;6.18;;;5.57;;
40290;SDS011;26000;48.304;13.626;2022-08-11T03:26:43;6.72;;;5.25;;
40290;SDS011;26000;48.304;13.626;2022-08-11T03:29:30;6.78;;;5.60;;
40290;SDS011;26000;48.304;13.626;2022-08-11T03:32:00;7.75;;;5.78;;
40290;SDS011;26000;48.304;13.626;2022-08-11T03:34:32;8.27;;;5.68;;
40290;SDS011;26000;48.304;13.626;2022-08-11T03:51:38;6.97;;;6.28;;
40290;SDS011;26000;48.304;13.626;2022-08-11T04:05:33;6.03;;;5.43;;
40290;SDS011;26000;48.304;13.626;2022-08-11T04:22:21;5.75;;;5.00;;
40290;SDS011;26000;48.304;13.626;2022-08-11T04:43:08;8.07;;;5.70;;
40290;SDS011;26000;48.304;13.626;2022-08-11T05:06:36;9.20;;;6.03;;
40290;SDS011;26000;48.304;13.626;2022-08-11T05:09:27;8.60;;;5.93;;
40290;SDS011;26000;48.304;13.626;2022-08-11T05:14:59;12.95;;;6.70;;
40290;SDS011;26000;48.304;13.626;2022-08-11T05:17:52;8.90;;;6.28;;
40290;SDS011;26000;48.304;13.626;2022-08-11T05:20:50;6.47;;;5.78;;
40290;SDS011;26000;48.304;13.626;2022-08-11T05:23:39;8.67;;;6.57;;
40290;SDS011;26000;48.304;13.626;2022-08-11T05:26:34;7.03;;;5.45;;
40290;SDS011;26000;48.304;13.626;2022-08-11T05:32:22;10.02;;;6.00;;
40290;SDS011;26000;48.304;13.626;2022-08-11T05:40:26;7.35;;;5.90;;
40290;SDS011;26000;48.304;13.626;2022-08-11T05:43:12;7.82;;;6.18;;
40290;SDS011;26000;48.304;13.626;2022-08-11T05:46:00;9.18;;;6.35;;
40290;SDS011;26000;48.304;13.626;2022-08-11T05:48:47;9.70;;;5.72;;
40290;SDS011;26000;48.304;13.626;2022-08-11T05:51:34;6.90;;;5.68;;
40290;SDS011;26000;48.304;13.626;2022-08-11T05:54:22;7.55;;;4.85;;
40290;SDS011;26000;48.304;13.626;2022-08-11T05:57:08;12.90;;;5.63;;
40290;SDS011;26000;48.304;13.626;2022-08-11T05:59:42;6.50;;;5.18;;
40290;SDS011;26000;48.304;13.626;2022-08-11T06:02:10;11.55;;;5.63;;
40290;SDS011;26000;48.304;13.626;2022-08-11T06:04:37;6.70;;;5.18;;
40290;SDS011;26000;48.304;13.626;2022-08-11T06:07:04;7.65;;;5.47;;
40290;SDS011;26000;48.304;13.626;2022-08-11T06:12:22;8.55;;;5.78;;
40290;SDS011;26000;48.304;13.626;2022-08-11T06:15:00;7.18;;;5.30;;
40290;SDS011;26000;48.304;13.626;2022-08-11T06:17:30;7.82;;;4.72;;
40290;SDS011;26000;48.304;13.626;2022-08-11T06:20:01;6.13;;;5.00;;
40290;SDS011;26000;48.304;13.626;2022-08-11T06:22:44;12.90;;;5.30;;
40290;SDS011;26000;48.304;13.626;2022-08-11T06:25:12;10.98;;;5.20;;
40290;SDS011;26000;48.304;13.626;2022-08-11T06:27:40;5.63;;;5.03;;
40290;SDS011;26000;48.304;13.626;2022-08-11T06:30:08;8.25;;;5.32;;
40290;SDS011;26000;48.304;13.626;2022-08-11T06:32:38;9.40;;;5.03;;
40290;SDS011;26000;48.304;13.626;2022-08-11T06:35:09;5.70;;;4.38;;
40290;SDS011;26000;48.304;13.626;2022-08-11T06:43:45;9.75;;;4.28;;
40290;SDS011;26000;48.304;13.626;2022-08-11T06:46:16;6.88;;;4.05;;
40290;SDS011;26000;48.304;13.626;2022-08-11T06:48:49;7.90;;;4.45;;
40290;SDS011;26000;48.304;13.626;2022-08-11T06:51:15;5.32;;;4.35;;
40290;SDS011;26000;48.304;13.626;2022-08-11T06:53:45;10.00;;;3.70;;
40290;SDS011;26000;48.304;13.626;2022-08-11T06:56:13;4.30;;;3.60;;
40290;SDS011;26000;48.304;13.626;2022-08-11T06:59:06;5.82;;;3.92;;
40290;SDS011;26000;48.304;13.626;2022-08-11T07:02:08;4.68;;;3.60;;
40290;SDS011;26000;48.304;13.626;2022-08-11T07:05:04;5.93;;;3.40;;
40290;SDS011;26000;48.304;13.626;2022-08-11T07:13:41;6.57;;;3.88;;
40290;SDS011;26000;48.304;13.626;2022-08-11T07:16:28;5.82;;;3.50;;
40290;SDS011;26000;48.304;13.626;2022-08-11T07:19:02;5.70;;;3.80;;
40290;SDS011;26000;48.304;13.626;2022-08-11T07:21:48;7.30;;;3.40;;
40290;SDS011;26000;48.304;13.626;2022-08-11T07:24:38;4.85;;;3.55;;
40290;SDS011;26000;48.304;13.626;2022-08-11T07:27:27;6.18;;;3.58;;
40290;SDS011;26000;48.304;13.626;2022-08-11T07:30:18;6.13;;;3.13;;
40290;SDS011;26000;48.304;13.626;2022-08-11T07:32:46;4.47;;;2.97;;
40290;SDS011;26000;48.304;13.626;2022-08-11T07:35:16;7.57;;;3.15;;
40290;SDS011;26000;48.304;13.626;2022-08-11T07:37:51;4.43;;;3.08;;
40290;SDS011;26000;48.304;13.626;2022-08-11T07:40:21;4.35;;;2.97;;
40290;SDS011;26000;48.304;13.626;2022-08-11T07:42:48;3.80;;;3.20;;
40290;SDS011;26000;48.304;13.626;2022-08-11T07:45:16;6.78;;;3.22;;
40290;SDS011;26000;48.304;13.626;2022-08-11T07:48:01;5.22;;;3.40;;
40290;SDS011;26000;48.304;13.626;2022-08-11T07:50:45;8.80;;;3.30;;
40290;SDS011;26000;48.304;13.626;2022-08-11T07:53:31;5.03;;;3.15;;
40290;SDS011;26000;48.304;13.626;2022-08-11T07:55:59;3.85;;;2.97;;
40290;SDS011;26000;48.304;13.626;2022-08-11T07:58:26;6.63;;;2.80;;
40290;SDS011;26000;48.304;13.626;2022-08-11T08:01:11;3.30;;;3.00;;
40290;SDS011;26000;48.304;13.626;2022-08-11T08:04:03;5.00;;;2.90;;
40290;SDS011;26000;48.304;13.626;2022-08-11T08:06:48;3.08;;;2.55;;
40290;SDS011;26000;48.304;13.626;2022-08-11T08:09:33;4.15;;;3.00;;
40290;SDS011;26000;48.304;13.626;2022-08-11T08:12:21;4.60;;;2.63;;
40290;SDS011;26000;48.304;13.626;2022-08-11T08:15:08;3.75;;;3.03;;
40290;SDS011;26000;48.304;13.626;2022-08-11T08:17:57;8.35;;;2.90;;
40290;SDS011;26000;48.304;13.626;2022-08-11T08:20:26;4.07;;;3.03;;
40290;SDS011;26000;48.304;13.626;2022-08-11T08:23:02;6.30;;;3.33;;
40290;SDS011;26000;48.304;13.626;2022-08-11T08:25:30;5.75;;;3.35;;
40290;SDS011;26000;48.304;13.626;2022-08-11T08:27:57;4.47;;;2.83;;
40290;SDS011;26000;48.304;13.626;2022-08-11T08:30:26;5.07;;;3.13;;
40290;SDS011;26000;48.304;13.626;2022-08-11T08:33:18;4.47;;;3.03;;
40290;SDS011;26000;48.304;13.626;2022-08-11T08:35:47;5.80;;;3.00;;
40290;SDS011;26000;48.304;13.626;2022-08-11T08:38:15;4.47;;;3.20;;
40290;SDS011;26000;48.304;13.626;2022-08-11T08:40:42;7.85;;;3.38;;
40290;SDS011;26000;48.304;13.626;2022-08-11T08:43:11;5.07;;;2.85;;
40290;SDS011;26000;48.304;13.626;2022-08-11T08:45:41;6.65;;;3.10;;
40290;SDS011;26000;48.304;13.626;2022-08-11T08:48:10;8.65;;;3.45;;
40290;SDS011;26000;48.304;13.626;2022-08-11T08:50:39;5.53;;;2.65;;
40290;SDS011;26000;48.304;13.626;2022-08-11T08:53:47;4.72;;;3.00;;
40290;SDS011;26000;48.304;13.626;2022-08-11T08:56:15;4.90;;;3.15;;
40290;SDS011;26000;48.304;13.626;2022-08-11T08:58:42;5.30;;;2.85;;
40290;SDS011;26000;48.304;13.626;2022-08-11T09:01:12;4.70;;;3.00;;
40290;SDS011;26000;48.304;13.626;2022-08-11T09:03:40;6.10;;;3.30;;
40290;SDS011;26000;48.304;13.626;2022-08-11T09:06:07;7.15;;;3.03;;
40290;SDS011;26000;48.304;13.626;2022-08-11T09:08:34;5.32;;;3.15;;
40290;SDS011;26000;48.304;13.626;2022-08-11T09:11:00;5.75;;;3.08;;
40290;SDS011;26000;48.304;13.626;2022-08-11T09:13:47;6.30;;;3.30;;
40290;SDS011;26000;48.304;13.626;2022-08-11T09:16:14;4.85;;;3.25;;
40290;SDS011;26000;48.304;13.626;2022-08-11T09:18:40;4.55;;;2.95;;
40290;SDS011;26000;48.304;13.626;2022-08-11T09:21:11;4.60;;;2.83;;
40290;SDS011;26000;48.304;13.626;2022-08-11T09:23:39;5.07;;;3.20;;
40290;SDS011;26000;48.304;13.626;2022-08-11T09:26:24;4.50;;;3.17;;
40290;SDS011;26000;48.304;13.626;2022-08-11T09:29:09;5.45;;;3.60;;
40290;SDS011;26000;48.304;13.626;2022-08-11T09:31:35;7.65;;;3.33;;
40290;SDS011;26000;48.304;13.626;2022-08-11T09:34:02;6.10;;;3.50;;
40290;SDS011;26000;48.304;13.626;2022-08-11T09:36:27;6.20;;;3.28;;
40290;SDS011;26000;48.304;13.626;2022-08-11T09:39:12;5.00;;;3.40;;
40290;SDS011;26000;48.304;13.626;2022-08-11T09:41:59;5.45;;;3.05;;
40290;SDS011;26000;48.304;13.626;2022-08-11T09:44:26;5.00;;;3.10;;
40290;SDS011;26000;48.304;13.626;2022-08-11T09:47:11;7.07;;;3.70;;
40290;SDS011;26000;48.304;13.626;2022-08-11T09:49:44;5.78;;;2.88;;
40290;SDS011;26000;48.304;13.626;2022-08-11T09:52:12;8.55;;;3.20;;
40290;SDS011;26000;48.304;13.626;2022-08-11T09:54:42;4.50;;;3.08;;
40290;SDS011;26000;48.304;13.626;2022-08-11T09:57:08;6.72;;;2.72;;
40290;SDS011;26000;48.304;13.626;2022-08-11T09:59:53;3.85;;;2.65;;
40290;SDS011;26000;48.304;13.626;2022-08-11T10:02:22;4.28;;;3.03;;
40290;SDS011;26000;48.304;13.626;2022-08-11T10:04:51;6.95;;;2.80;;
40290;SDS011;26000;48.304;13.626;2022-08-11T10:07:44;2.90;;;2.70;;
40290;SDS011;26000;48.304;13.626;2022-08-11T10:10:15;5.20;;;2.75;;
40290;SDS011;26000;48.304;13.626;2022-08-11T10:12:47;3.75;;;2.92;;
40290;SDS011;26000;48.304;13.626;2022-08-11T10:15:17;4.20;;;2.90;;
40290;SDS011;26000;48.304;13.626;2022-08-11T10:18:09;5.82;;;2.95;;
40290;SDS011;26000;48.304;13.626;2022-08-11T10:21:05;4.00;;;2.80;;
40290;SDS011;26000;48.304;13.626;2022-08-11T10:23:35;4.70;;;2.70;;
40290;SDS011;26000;48.304;13.626;2022-08-11T10:26:22;5.82;;;2.80;;
40290;SDS011;26000;48.304;13.626;2022-08-11T10:29:08;5.18;;;2.80;;
40290;SDS011;26000;48.304;13.626;2022-08-11T10:31:54;4.45;;;2.65;;
40290;SDS011;26000;48.304;13.626;2022-08-11T10:34:40;5.88;;;2.60;;
40290;SDS011;26000;48.304;13.626;2022-08-11T10:37:09;3.33;;;2.58;;
40290;SDS011;26000;48.304;13.626;2022-08-11T10:39:36;2.60;;;2.40;;
40290;SDS011;26000;48.304;13.626;2022-08-11T10:42:03;3.00;;;2.40;;
40290;SDS011;26000;48.304;13.626;2022-08-11T10:44:50;3.30;;;2.80;;
40290;SDS011;26000;48.304;13.626;2022-08-11T10:47:18;3.45;;;2.55;;
40290;SDS011;26000;48.304;13.626;2022-08-11T10:50:10;5.65;;;2.55;;
40290;SDS011;26000;48.304;13.626;2022-08-11T10:52:56;3.92;;;2.72;;
40290;SDS011;26000;48.304;13.626;2022-08-11T10:55:42;4.75;;;2.55;;
40290;SDS011;26000;48.304;13.626;2022-08-11T10:58:28;4.30;;;2.70;;
40290;SDS011;26000;48.304;13.626;2022-08-11T11:01:14;5.43;;;2.80;;
40290;SDS011;26000;48.304;13.626;2022-08-11T11:03:46;7.88;;;2.70;;
40290;SDS011;26000;48.304;13.626;2022-08-11T11:08:49;5.65;;;2.78;;
40290;SDS011;26000;48.304;13.626;2022-08-11T11:11:21;5.05;;;2.85;;
40290;SDS011;26000;48.304;13.626;2022-08-11T11:14:09;5.60;;;2.55;;
40290;SDS011;26000;48.304;13.626;2022-08-11T11:16:58;3.95;;;2.47;;
40290;SDS011;26000;48.304;13.626;2022-08-11T11:19:37;3.95;;;2.53;;
40290;SDS011;26000;48.304;13.626;2022-08-11T11:22:04;4.60;;;2.20;;
40290;SDS011;26000;48.304;13.626;2022-08-11T11:27:47;5.95;;;2.20;;
40290;SDS011;26000;48.304;13.626;2022-08-11T11:30:24;5.00;;;2.40;;
40290;SDS011;26000;48.304;13.626;2022-08-11T11:33:22;3.25;;;2.22;;
40290;SDS011;26000;48.304;13.626;2022-08-11T11:38:51;3.42;;;2.40;;
40290;SDS011;26000;48.304;13.626;2022-08-11T11:41:20;3.47;;;2.20;;
40290;SDS011;26000;48.304;13.626;2022-08-11T11:43:59;9.15;;;3.22;;
40290;SDS011;26000;48.304;13.626;2022-08-11T11:46:26;4.18;;;2.40;;
40290;SDS011;26000;48.304;13.626;2022-08-11T11:48:53;4.57;;;2.35;;
40290;SDS011;26000;48.304;13.626;2022-08-11T11:51:20;5.57;;;1.88;;
40290;SDS011;26000;48.304;13.626;2022-08-11T11:53:50;2.33;;;2.03;;
40290;SDS011;26000;48.304;13.626;2022-08-11T11:56:16;4.22;;;2.50;;
40290;SDS011;26000;48.304;13.626;2022-08-11T11:58:45;3.90;;;2.60;;
40290;SDS011;26000;48.304;13.626;2022-08-11T12:01:31;3.88;;;2.20;;
40290;SDS011;26000;48.304;13.626;2022-08-11T12:03:58;3.88;;;2.53;;
40290;SDS011;26000;48.304;13.626;2022-08-11T12:06:24;2.20;;;2.00;;
40290;SDS011;26000;48.304;13.626;2022-08-11T12:08:52;4.97;;;2.20;;
40290;SDS011;26000;48.304;13.626;2022-08-11T12:11:20;4.25;;;2.15;;
40290;SDS011;26000;48.304;13.626;2022-08-11T12:14:07;5.72;;;2.55;;
40290;SDS011;26000;48.304;13.626;2022-08-11T12:16:40;3.75;;;2.22;;
40290;SDS011;26000;48.304;13.626;2022-08-11T12:19:18;2.55;;;1.90;;
40290;SDS011;26000;48.304;13.626;2022-08-11T12:21:48;3.42;;;2.30;;
40290;SDS011;26000;48.304;13.626;2022-08-11T12:24:34;2.85;;;2.45;;
40290;SDS011;26000;48.304;13.626;2022-08-11T12:27:30;3.17;;;2.13;;
40290;SDS011;26000;48.304;13.626;2022-08-11T12:29:57;4.07;;;2.25;;
40290;SDS011;26000;48.304;13.626;2022-08-11T12:32:30;5.22;;;2.50;;
40290;SDS011;26000;48.304;13.626;2022-08-11T12:34:57;2.58;;;1.90;;
40290;SDS011;26000;48.304;13.626;2022-08-11T12:37:25;2.95;;;2.10;;
40290;SDS011;26000;48.304;13.626;2022-08-11T12:39:57;2.10;;;1.90;;
40290;SDS011;26000;48.304;13.626;2022-08-11T12:42:44;3.38;;;2.25;;
40290;SDS011;26000;48.304;13.626;2022-08-11T12:45:30;2.50;;;1.88;;
40290;SDS011;26000;48.304;13.626;2022-08-11T12:48:07;2.25;;;2.05;;
40290;SDS011;26000;48.304;13.626;2022-08-11T12:50:57;3.63;;;1.90;;
40290;SDS011;26000;48.304;13.626;2022-08-11T12:53:50;3.10;;;2.15;;
40290;SDS011;26000;48.304;13.626;2022-08-11T12:56:23;2.65;;;2.25;;
40290;SDS011;26000;48.304;13.626;2022-08-11T12:59:15;2.95;;;2.17;;
40290;SDS011;26000;48.304;13.626;2022-08-11T13:02:01;2.25;;;1.92;;
40290;SDS011;26000;48.304;13.626;2022-08-11T13:07:24;3.80;;;2.00;;
40290;SDS011;26000;48.304;13.626;2022-08-11T13:09:51;4.35;;;2.22;;
40290;SDS011;26000;48.304;13.626;2022-08-11T13:12:18;5.10;;;2.10;;
40290;SDS011;26000;48.304;13.626;2022-08-11T13:15:04;2.25;;;1.77;;
40290;SDS011;26000;48.304;13.626;2022-08-11T13:17:31;3.53;;;2.15;;
40290;SDS011;26000;48.304;13.626;2022-08-11T13:19:58;5.13;;;1.80;;
40290;SDS011;26000;48.304;13.626;2022-08-11T13:22:26;2.28;;;1.88;;
40290;SDS011;26000;48.304;13.626;2022-08-11T13:24:53;1.83;;;1.70;;
40290;SDS011;26000;48.304;13.626;2022-08-11T13:27:20;2.97;;;2.47;;
40290;SDS011;26000;48.304;13.626;2022-08-11T13:29:46;2.78;;;1.85;;
40290;SDS011;26000;48.304;13.626;2022-08-11T13:32:14;4.50;;;1.90;;
40290;SDS011;26000;48.304;13.626;2022-08-11T13:34:41;2.38;;;1.85;;
40290;SDS011;26000;48.304;13.626;2022-08-11T13:37:09;2.72;;;1.90;;
40290;SDS011;26000;48.304;13.626;2022-08-11T13:39:37;3.15;;;1.90;;
40290;SDS011;26000;48.304;13.626;2022-08-11T13:42:11;2.50;;;2.17;;
40290;SDS011;26000;48.304;13.626;2022-08-11T13:44:40;3.13;;;1.90;;
40290;SDS011;26000;48.304;13.626;2022-08-11T13:47:07;4.35;;;1.98;;
40290;SDS011;26000;48.304;13.626;2022-08-11T13:49:37;3.35;;;1.85;;
40290;SDS011;26000;48.304;13.626;2022-08-11T13:52:04;4.00;;;2.00;;
40290;SDS011;26000;48.304;13.626;2022-08-11T13:54:34;2.10;;;1.80;;
40290;SDS011;26000;48.304;13.626;2022-08-11T13:57:04;3.28;;;1.90;;
40290;SDS011;26000;48.304;13.626;2022-08-11T13:59:32;2.97;;;2.17;;
40290;SDS011;26000;48.304;13.626;2022-08-11T14:02:00;2.10;;;1.80;;
40290;SDS011;26000;48.304;13.626;2022-08-11T14:04:33;2.38;;;1.80;;
40290;SDS011;26000;48.304;13.626;2022-08-11T14:07:09;1.67;;;1.58;;
40290;SDS011;26000;48.304;13.626;2022-08-11T14:09:39;1.85;;;1.70;;
40290;SDS011;26000;48.304;13.626;2022-08-11T14:12:19;5.07;;;2.03;;
40290;SDS011;26000;48.304;13.626;2022-08-11T14:15:11;1.65;;;1.55;;
40290;SDS011;26000;48.304;13.626;2022-08-11T14:17:43;2.00;;;1.80;;
40290;SDS011;26000;48.304;13.626;2022-08-11T14:20:22;1.80;;;1.67;;
40290;SDS011;26000;48.304;13.626;2022-08-11T14:22:48;2.08;;;1.88;;
40290;SDS011;26000;48.304;13.626;2022-08-11T14:25:16;3.65;;;1.60;;
40290;SDS011;26000;48.304;13.626;2022-08-11T14:27:44;2.33;;;1.80;;
40290;SDS011;26000;48.304;13.626;2022-08-11T14:30:13;4.05;;;2.03;;
40290;SDS011;26000;48.304;13.626;2022-08-11T14:32:59;2.15;;;1.50;;
40290;SDS011;26000;48.304;13.626;2022-08-11T14:35:26;3.53;;;1.95;;
40290;SDS011;26000;48.304;13.626;2022-08-11T14:37:52;3.90;;;1.88;;
40290;SDS011;26000;48.304;13.626;2022-08-11T14:40:21;3.90;;;1.90;;
40290;SDS011;26000;48.304;13.626;2022-08-11T14:43:05;2.97;;;1.92;;
40290;SDS011;26000;48.304;13.626;2022-08-11T14:45:50;7.23;;;2.00;;
40290;SDS011;26000;48.304;13.626;2022-08-11T14:48:34;4.82;;;1.77;;
40290;SDS011;26000;48.304;13.626;2022-08-11T14:51:01;2.70;;;1.60;;
40290;SDS011;26000;48.304;13.626;2022-08-11T14:53:28;2.63;;;1.60;;
40290;SDS011;26000;48.304;13.626;2022-08-11T14:55:53;2.20;;;1.90;;
40290;SDS011;26000;48.304;13.626;2022-08-11T14:58:38;3.97;;;2.03;;
40290;SDS011;26000;48.304;13.626;2022-08-11T15:01:04;1.98;;;1.75;;
40290;SDS011;26000;48.304;13.626;2022-08-11T15:03:50;2.13;;;1.70;;
40290;SDS011;26000;48.304;13.626;2022-08-11T15:06:16;1.92;;;1.70;;
40290;SDS011;26000;48.304;13.626;2022-08-11T15:08:42;2.08;;;1.80;;
40290;SDS011;26000;48.304;13.626;2022-08-11T15:11:20;3.63;;;1.90;;
40290;SDS011;26000;48.304;13.626;2022-08-11T15:14:07;2.70;;;1.60;;
40290;SDS011;26000;48.304;13.626;2022-08-11T15:16:39;2.55;;;1.90;;
40290;SDS011;26000;48.304;13.626;2022-08-11T15:19:27;1.90;;;1.70;;
40290;SDS011;26000;48.304;13.626;2022-08-11T15:21:54;5.30;;;1.60;;
40290;SDS011;26000;48.304;13.626;2022-08-11T15:24:38;2.30;;;1.70;;
40290;SDS011;26000;48.304;13.626;2022-08-11T15:27:04;3.90;;;1.90;;
40290;SDS011;26000;48.304;13.626;2022-08-11T15:29:54;4.22;;;2.00;;
40290;SDS011;26000;48.304;13.626;2022-08-11T15:32:41;2.38;;;1.80;;
40290;SDS011;26000;48.304;13.626;2022-08-11T15:35:45;4.18;;;1.95;;
40290;SDS011;26000;48.304;13.626;2022-08-11T15:38:29;5.28;;;2.30;;
40290;SDS011;26000;48.304;13.626;2022-08-11T15:41:00;27.63;;;3.45;;
40290;SDS011;26000;48.304;13.626;2022-08-11T15:43:48;5.03;;;1.58;;
40290;SDS011;26000;48.304;13.626;2022-08-11T15:49:22;4.35;;;1.73;;
40290;SDS011;26000;48.304;13.626;2022-08-11T15:51:59;3.28;;;1.73;;
40290;SDS011;26000;48.304;13.626;2022-08-11T15:54:28;4.40;;;1.73;;
40290;SDS011;26000;48.304;13.626;2022-08-11T15:56:56;1.90;;;1.73;;
40290;SDS011;26000;48.304;13.626;2022-08-11T15:59:25;3.33;;;2.00;;
40290;SDS011;26000;48.304;13.626;2022-08-11T16:02:14;2.05;;;1.60;;
40290;SDS011;26000;48.304;13.626;2022-08-11T16:04:41;2.50;;;1.70;;
40290;SDS011;26000;48.304;13.626;2022-08-11T16:07:10;2.88;;;1.80;;
40290;SDS011;26000;48.304;13.626;2022-08-11T16:09:42;2.58;;;1.83;;
40290;SDS011;26000;48.304;13.626;2022-08-11T16:12:12;2.25;;;2.00;;
40290;SDS011;26000;48.304;13.626;2022-08-11T16:14:41;2.10;;;1.67;;
40290;SDS011;26000;48.304;13.626;2022-08-11T16:17:33;2.38;;;1.88;;
40290;SDS011;26000;48.304;13.626;2022-08-11T16:20:02;4.18;;;1.70;;
40290;SDS011;26000;48.304;13.626;2022-08-11T16:22:30;2.72;;;1.73;;
40290;SDS011;26000;48.304;13.626;2022-08-11T16:25:07;3.13;;;2.10;;
40290;SDS011;26000;48.304;13.626;2022-08-11T16:27:36;4.75;;;2.10;;
40290;SDS011;26000;48.304;13.626;2022-08-11T16:30:05;3.20;;;1.60;;
40290;SDS011;26000;48.304;13.626;2022-08-11T16:32:33;3.20;;;1.90;;
40290;SDS011;26000;48.304;13.626;2022-08-11T16:35:06;1.90;;;1.70;;
40290;SDS011;26000;48.304;13.626;2022-08-11T16:37:54;1.55;;;1.45;;
40290;SDS011;26000;48.304;13.626;2022-08-11T16:40:40;3.05;;;1.85;;
40290;SDS011;26000;48.304;13.626;2022-08-11T16:43:08;2.33;;;2.00;;
40290;SDS011;26000;48.304;13.626;2022-08-11T16:45:57;5.50;;;2.10;;
40290;SDS011;26000;48.304;13.626;2022-08-11T16:48:44;6.38;;;1.80;;
40290;SDS011;26000;48.304;13.626;2022-08-11T16:51:13;1.65;;;1.55;;
40290;SDS011;26000;48.304;13.626;2022-08-11T16:53:41;4.55;;;2.05;;
40290;SDS011;26000;48.304;13.626;2022-08-11T16:56:08;4.18;;;2.03;;
40290;SDS011;26000;48.304;13.626;2022-08-11T16:58:41;4.30;;;1.88;;
40290;SDS011;26000;48.304;13.626;2022-08-11T17:01:29;2.25;;;1.83;;
40290;SDS011;26000;48.304;13.626;2022-08-11T17:03:59;3.45;;;1.95;;
40290;SDS011;26000;48.304;13.626;2022-08-11T17:06:50;2.22;;;1.63;;
40290;SDS011;26000;48.304;13.626;2022-08-11T17:09:36;3.00;;;1.90;;
40290;SDS011;26000;48.304;13.626;2022-08-11T17:12:23;2.10;;;1.90;;
40290;SDS011;26000;48.304;13.626;2022-08-11T17:15:16;2.17;;;1.83;;
40290;SDS011;26000;48.304;13.626;2022-08-11T17:18:02;6.70;;;2.30;;
40290;SDS011;26000;48.304;13.626;2022-08-11T17:20:31;2.42;;;2.00;;
40290;SDS011;26000;48.304;13.626;2022-08-11T17:22:59;6.07;;;2.10;;
40290;SDS011;26000;48.304;13.626;2022-08-11T17:25:45;4.85;;;2.20;;
40290;SDS011;26000;48.304;13.626;2022-08-11T17:28:15;2.72;;;1.98;;
40290;SDS011;26000;48.304;13.626;2022-08-11T17:30:42;3.60;;;2.30;;
40290;SDS011;26000;48.304;13.626;2022-08-11T17:33:28;4.55;;;2.33;;
40290;SDS011;26000;48.304;13.626;2022-08-11T17:36:15;3.63;;;2.00;;
40290;SDS011;26000;48.304;13.626;2022-08-11T17:38:42;3.40;;;2.10;;
40290;SDS011;26000;48.304;13.626;2022-08-11T17:41:11;4.05;;;1.98;;
40290;SDS011;26000;48.304;13.626;2022-08-11T17:43:57;5.22;;;2.17;;
40290;SDS011;26000;48.304;13.626;2022-08-11T17:46:44;2.65;;;2.33;;
40290;SDS011;26000;48.304;13.626;2022-08-11T17:49:30;2.42;;;2.05;;
40290;SDS011;26000;48.304;13.626;2022-08-11T17:52:01;5.95;;;2.97;;
40290;SDS011;26000;48.304;13.626;2022-08-11T17:54:47;3.50;;;2.25;;
40290;SDS011;26000;48.304;13.626;2022-08-11T17:57:34;9.20;;;2.03;;
40290;SDS011;26000;48.304;13.626;2022-08-11T18:00:21;5.43;;;2.00;;
40290;SDS011;26000;48.304;13.626;2022-08-11T18:02:47;3.20;;;2.28;;
40290;SDS011;26000;48.304;13.626;2022-08-11T18:05:32;3.72;;;2.80;;
40290;SDS011;26000;48.304;13.626;2022-08-11T18:08:02;4.07;;;2.17;;
40290;SDS011;26000;48.304;13.626;2022-08-11T18:10:49;2.67;;;1.75;;
40290;SDS011;26000;48.304;13.626;2022-08-11T18:13:35;4.13;;;2.15;;
40290;SDS011;26000;48.304;13.626;2022-08-11T18:16:20;5.93;;;2.13;;
40290;SDS011;26000;48.304;13.626;2022-08-11T18:19:06;3.13;;;2.10;;
40290;SDS011;26000;48.304;13.626;2022-08-11T18:21:52;3.42;;;2.00;;
40290;SDS011;26000;48.304;13.626;2022-08-11T18:24:49;3.85;;;2.08;;
40290;SDS011;26000;48.304;13.626;2022-08-11T18:27:37;3.75;;;2.03;;
40290;SDS011;26000;48.304;13.626;2022-08-11T18:30:26;2.55;;;2.10;;
40290;SDS011;26000;48.304;13.626;2022-08-11T18:33:14;2.25;;;2.05;;
40290;SDS011;26000;48.304;13.626;2022-08-11T18:36:00;3.55;;;1.92;;
40290;SDS011;26000;48.304;13.626;2022-08-11T18:38:45;2.25;;;1.90;;
40290;SDS011;26000;48.304;13.626;2022-08-11T18:41:30;2.53;;;2.22;;
40290;SDS011;26000;48.304;13.626;2022-08-11T18:44:17;2.40;;;2.20;;
40290;SDS011;26000;48.304;13.626;2022-08-11T18:47:07;4.20;;;2.40;;
40290;SDS011;26000;48.304;13.626;2022-08-11T18:49:54;2.95;;;2.00;;
40290;SDS011;26000;48.304;13.626;2022-08-11T18:52:42;2.63;;;2.08;;
40290;SDS011;26000;48.304;13.626;2022-08-11T18:55:28;3.67;;;2.10;;
40290;SDS011;26000;48.304;13.626;2022-08-11T18:58:14;2.47;;;2.28;;
40290;SDS011;26000;48.304;13.626;2022-08-11T19:01:04;2.50;;;2.00;;
40290;SDS011;26000;48.304;13.626;2022-08-11T19:03:52;2.60;;;2.38;;
40290;SDS011;26000;48.304;13.626;2022-08-11T19:06:38;2.70;;;2.00;;
40290;SDS011;26000;48.304;13.626;2022-08-11T19:09:25;3.38;;;1.90;;
40290;SDS011;26000;48.304;13.626;2022-08-11T19:12:11;4.28;;;2.70;;